createdAt,value
2023-03-01T00:01:49.068Z,32.84
2023-03-01T00:04:15.557Z,32.77
2023-03-01T00:06:41.971Z,32.23
2023-03-01T00:09:08.376Z,32.26
2023-03-01T00:11:34.863Z,32.46
2023-03-01T00:14:01.271Z,32.93
2023-03-01T00:16:27.723Z,32.32
2023-03-01T00:18:54.153Z,32.52
2023-03-01T00:21:20.565Z,31.51
2023-03-01T00:23:46.968Z,30.97
2023-03-01T00:26:13.378Z,30.96
2023-03-01T00:28:39.756Z,30.34
2023-03-01T00:31:06.210Z,30.71
2023-03-01T00:33:32.662Z,30.92
2023-03-01T00:35:59.112Z,31.36
2023-03-01T00:38:25.545Z,31.59
2023-03-01T00:40:51.948Z,32.67
2023-03-01T00:43:18.387Z,32.48
2023-03-01T00:45:44.864Z,32.33
2023-03-01T00:48:11.406Z,31.83
2023-03-01T00:50:37.772Z,33.17
2023-03-01T00:53:04.203Z,31.20
2023-03-01T00:55:30.805Z,31.47
2023-03-01T00:57:57.235Z,32.62
2023-03-01T01:00:23.664Z,33.32
2023-03-01T01:02:50.115Z,32.75
2023-03-01T01:05:16.511Z,32.78
2023-03-01T01:07:42.908Z,33.09
2023-03-01T01:10:09.362Z,32.62
2023-03-01T01:12:35.775Z,32.57
2023-03-01T01:15:02.185Z,32.15
2023-03-01T01:17:28.561Z,33.14
2023-03-01T01:19:54.940Z,32.94
2023-03-01T01:22:21.325Z,32.91
2023-03-01T01:24:47.794Z,33.35
2023-03-01T01:27:14.223Z,34.03
2023-03-01T01:29:40.689Z,33.94
2023-03-01T01:32:07.150Z,34.15
2023-03-01T01:34:33.704Z,34.13
2023-03-01T01:37:00.109Z,32.89
2023-03-01T01:39:26.544Z,33.71
2023-03-01T01:41:52.959Z,32.50
2023-03-01T01:44:19.402Z,33.29
2023-03-01T01:46:46.018Z,33.56
2023-03-01T01:49:12.472Z,33.95
2023-03-01T01:51:38.916Z,33.44
2023-03-01T01:54:05.333Z,33.81
2023-03-01T01:56:32.029Z,34.10
2023-03-01T01:58:58.576Z,34.12
2023-03-01T02:01:24.977Z,34.64
2023-03-01T02:03:51.456Z,34.57
2023-03-01T02:06:17.839Z,36.09
2023-03-01T02:08:44.230Z,35.42
2023-03-01T02:11:10.608Z,35.55
2023-03-01T02:13:37.061Z,36.47
2023-03-01T02:16:03.607Z,35.33
2023-03-01T02:18:30.109Z,35.27
2023-03-01T02:20:56.500Z,34.94
2023-03-01T02:23:22.903Z,35.32
2023-03-01T02:25:49.337Z,34.40
2023-03-01T02:28:15.738Z,35.21
2023-03-01T02:30:42.156Z,35.19
2023-03-01T02:33:08.593Z,34.53
2023-03-01T02:35:35.140Z,35.02
2023-03-01T02:38:01.707Z,35.28
2023-03-01T02:40:28.140Z,35.19
2023-03-01T02:42:54.667Z,34.64
2023-03-01T02:45:21.110Z,34.60
2023-03-01T02:47:47.571Z,35.80
2023-03-01T02:50:14.044Z,36.01
2023-03-01T02:52:41.214Z,35.11
2023-03-01T02:55:08.507Z,34.86
2023-03-01T02:57:34.877Z,35.87
2023-03-01T03:00:01.318Z,35.51
2023-03-01T03:02:27.715Z,35.59
2023-03-01T03:04:54.141Z,35.61
2023-03-01T03:07:20.563Z,36.23
2023-03-01T03:09:46.967Z,36.18
2023-03-01T03:12:13.509Z,35.26
2023-03-01T03:14:39.891Z,35.30
2023-03-01T03:17:06.371Z,35.97
2023-03-01T03:19:32.756Z,37.06
2023-03-01T03:21:59.127Z,36.78
2023-03-01T03:24:25.549Z,36.08
2023-03-01T03:26:51.922Z,35.74
2023-03-01T03:29:18.365Z,35.16
2023-03-01T03:31:44.776Z,33.93
2023-03-01T03:34:11.204Z,34.07
2023-03-01T03:36:37.599Z,34.30
2023-03-01T03:39:04.012Z,33.72
2023-03-01T03:41:30.429Z,33.28
2023-03-01T03:43:56.809Z,34.19
2023-03-01T03:46:23.219Z,34.83
2023-03-01T03:48:49.620Z,35.00
2023-03-01T03:51:16.026Z,35.36
2023-03-01T03:53:42.460Z,35.28
2023-03-01T03:56:08.982Z,35.94
2023-03-01T03:58:35.567Z,35.53
2023-03-01T04:01:01.972Z,35.71
2023-03-01T04:03:28.377Z,35.53
2023-03-01T04:05:54.899Z,35.89
2023-03-01T04:08:21.295Z,33.50
2023-03-01T04:10:47.737Z,34.45
2023-03-01T04:13:14.193Z,35.79
2023-03-01T04:15:40.572Z,35.65
2023-03-01T04:18:06.990Z,36.01
2023-03-01T04:20:33.424Z,34.95
2023-03-01T04:22:59.820Z,35.48
2023-03-01T04:25:26.271Z,35.14
2023-03-01T04:27:52.680Z,35.80
2023-03-01T04:30:19.148Z,35.62
2023-03-01T04:32:45.578Z,34.52
2023-03-01T04:35:11.974Z,35.04
2023-03-01T04:37:38.363Z,34.65
2023-03-01T04:40:04.778Z,34.41
2023-03-01T04:42:31.206Z,34.27
2023-03-01T04:44:57.606Z,33.71
2023-03-01T04:47:24.020Z,34.72
2023-03-01T04:49:50.422Z,34.76
2023-03-01T04:52:16.953Z,33.70
2023-03-01T04:54:43.318Z,35.09
2023-03-01T04:57:09.745Z,35.34
2023-03-01T04:59:36.142Z,34.99
2023-03-01T05:02:02.546Z,35.24
2023-03-01T05:04:28.982Z,35.19
2023-03-01T05:06:55.389Z,36.09
2023-03-01T05:09:21.773Z,35.15
2023-03-01T05:11:48.174Z,35.16
2023-03-01T05:14:14.621Z,36.12
2023-03-01T05:16:41.024Z,36.84
2023-03-01T05:19:07.407Z,36.38
2023-03-01T05:21:33.832Z,35.70
2023-03-01T05:24:00.238Z,35.41
2023-03-01T05:26:39.747Z,34.80
2023-03-01T05:29:06.231Z,35.07
2023-03-01T05:31:32.661Z,34.82
2023-03-01T05:33:59.071Z,35.32
2023-03-01T05:36:25.487Z,35.32
2023-03-01T05:38:51.914Z,36.38
2023-03-01T05:41:18.423Z,36.21
2023-03-01T05:43:44.817Z,36.03
2023-03-01T05:46:11.245Z,36.66
2023-03-01T05:48:37.755Z,35.44
2023-03-01T05:51:04.167Z,36.16
2023-03-01T05:53:30.578Z,36.76
2023-03-01T05:55:57.021Z,35.34
2023-03-01T05:58:23.464Z,37.11
2023-03-01T06:00:49.861Z,37.24
2023-03-01T06:03:16.501Z,36.67
2023-03-01T06:05:42.968Z,36.69
2023-03-01T06:08:09.374Z,37.49
2023-03-01T06:10:35.958Z,36.47
2023-03-01T06:13:02.435Z,36.92
2023-03-01T06:15:28.893Z,37.18
2023-03-01T06:17:55.303Z,37.06
2023-03-01T06:20:21.663Z,36.89
2023-03-01T06:22:48.102Z,36.42
2023-03-01T06:25:14.504Z,37.08
2023-03-01T06:27:40.878Z,36.26
2023-03-01T06:30:07.298Z,37.43
2023-03-01T06:32:33.734Z,36.52
2023-03-01T06:35:00.151Z,36.82
2023-03-01T06:37:26.538Z,36.73
2023-03-01T06:39:52.998Z,37.26
2023-03-01T06:42:20.589Z,36.63
2023-03-01T06:44:46.999Z,36.27
2023-03-01T06:47:13.506Z,37.02
2023-03-01T06:49:39.979Z,37.36
2023-03-01T06:52:06.368Z,36.89
2023-03-01T06:54:32.774Z,36.65
2023-03-01T06:56:59.175Z,38.21
2023-03-01T06:59:25.553Z,38.07
2023-03-01T07:01:51.984Z,37.69
2023-03-01T07:04:18.411Z,36.36
2023-03-01T07:06:44.828Z,37.51
2023-03-01T07:09:11.632Z,36.91
2023-03-01T07:11:38.099Z,36.91
2023-03-01T07:14:04.613Z,36.01
2023-03-01T07:16:31.417Z,37.69
2023-03-01T07:18:59.745Z,36.51
2023-03-01T07:21:26.285Z,36.61
2023-03-01T07:23:52.660Z,38.35
2023-03-01T07:26:19.055Z,35.66
2023-03-01T07:28:45.461Z,35.92
2023-03-01T07:31:11.856Z,35.30
2023-03-01T07:33:38.449Z,35.01
2023-03-01T07:36:04.856Z,36.15
2023-03-01T07:38:31.263Z,36.42
2023-03-01T07:40:57.677Z,35.53
2023-03-01T07:43:24.051Z,36.42
2023-03-01T07:45:50.549Z,36.63
2023-03-01T07:48:16.963Z,36.50
2023-03-01T07:50:43.372Z,36.66
2023-03-01T07:53:09.786Z,36.57
2023-03-01T07:55:36.202Z,36.79
2023-03-01T07:58:02.591Z,36.56
2023-03-01T08:00:29.007Z,35.21
2023-03-01T08:02:55.398Z,36.40
2023-03-01T08:05:21.830Z,36.91
2023-03-01T08:07:48.226Z,36.50
2023-03-01T08:10:14.608Z,36.79
2023-03-01T08:12:41.091Z,35.88
2023-03-01T08:15:07.502Z,36.61
2023-03-01T08:17:33.879Z,36.32
2023-03-01T08:20:00.306Z,35.31
2023-03-01T08:22:26.707Z,35.89
2023-03-01T08:24:53.108Z,35.80
2023-03-01T08:27:19.603Z,35.34
2023-03-01T08:29:45.973Z,34.78
2023-03-01T08:32:12.419Z,35.19
2023-03-01T08:34:39.732Z,35.67
2023-03-01T08:37:06.849Z,35.94
2023-03-01T08:39:33.245Z,36.75
2023-03-01T08:41:59.692Z,35.48
2023-03-01T08:44:26.161Z,35.94
2023-03-01T08:46:52.568Z,35.82
2023-03-01T08:49:19.019Z,34.96
2023-03-01T08:51:45.469Z,34.96
2023-03-01T08:54:11.940Z,35.96
2023-03-01T08:56:38.377Z,34.99
2023-03-01T08:59:04.760Z,35.25
2023-03-01T09:01:31.186Z,34.56
2023-03-01T09:03:57.628Z,35.17
2023-03-01T09:06:24.045Z,34.11
2023-03-01T09:08:50.509Z,35.00
2023-03-01T09:11:16.949Z,35.31
2023-03-01T09:13:44.408Z,34.61
2023-03-01T09:16:10.932Z,35.54
2023-03-01T09:18:37.410Z,35.10
2023-03-01T09:21:03.812Z,35.86
2023-03-01T09:23:30.221Z,35.66
2023-03-01T09:25:56.617Z,33.78
2023-03-01T09:28:29.741Z,34.44
2023-03-01T09:30:56.675Z,35.19
2023-03-01T09:33:23.050Z,34.91
2023-03-01T09:35:49.445Z,34.70
2023-03-01T09:38:15.869Z,34.58
2023-03-01T09:40:42.255Z,35.43
2023-03-01T09:43:08.674Z,35.09
2023-03-01T09:45:35.216Z,35.05
2023-03-01T09:48:01.741Z,33.56
2023-03-01T09:50:28.243Z,34.75
2023-03-01T09:52:54.686Z,34.46
2023-03-01T09:55:21.112Z,34.76
2023-03-01T09:57:47.483Z,35.22
2023-03-01T10:00:13.893Z,34.20
2023-03-01T10:02:40.327Z,33.62
2023-03-01T10:05:06.760Z,34.29
2023-03-01T10:07:33.201Z,34.56
2023-03-01T10:09:59.572Z,34.66
2023-03-01T10:12:25.944Z,34.17
2023-03-01T10:14:52.357Z,34.11
2023-03-01T10:17:20.348Z,34.67
2023-03-01T10:19:46.875Z,34.68
2023-03-01T10:22:13.410Z,34.90
2023-03-01T10:24:39.890Z,33.86
2023-03-01T10:27:06.308Z,35.13
2023-03-01T10:29:32.678Z,35.72
2023-03-01T10:31:59.227Z,35.40
2023-03-01T10:34:25.641Z,34.91
2023-03-01T10:36:52.094Z,34.82
2023-03-01T10:39:18.545Z,34.91
2023-03-01T10:41:44.979Z,35.10
2023-03-01T10:44:11.398Z,35.44
2023-03-01T10:46:37.884Z,35.62
2023-03-01T10:49:04.446Z,34.88
2023-03-01T10:51:31.121Z,35.21
2023-03-01T10:53:57.769Z,34.04
2023-03-01T10:56:24.174Z,34.58
2023-03-01T10:58:50.597Z,35.26
2023-03-01T11:01:17.087Z,35.02
2023-03-01T11:03:43.553Z,35.08
2023-03-01T11:06:09.956Z,35.27
2023-03-01T11:08:36.381Z,35.29
2023-03-01T11:11:02.796Z,35.90
2023-03-01T11:13:29.174Z,35.15
2023-03-01T11:15:55.590Z,34.71
2023-03-01T11:18:23.675Z,33.74
2023-03-01T11:20:51.443Z,34.40
2023-03-01T11:23:17.844Z,33.90
2023-03-01T11:25:44.257Z,33.86
2023-03-01T11:28:10.707Z,33.41
2023-03-01T11:30:37.098Z,34.71
2023-03-01T11:33:03.496Z,34.90
2023-03-01T11:35:29.968Z,35.39
2023-03-01T11:37:56.351Z,35.53
2023-03-01T11:40:22.782Z,35.19
2023-03-01T11:42:49.372Z,37.55
2023-03-01T11:45:15.940Z,33.82
2023-03-01T11:47:42.570Z,33.38
2023-03-01T11:50:09.094Z,33.40
2023-03-01T11:52:35.753Z,35.10
2023-03-01T11:55:02.173Z,35.35
2023-03-01T11:57:41.092Z,34.55
2023-03-01T12:00:09.410Z,33.65
2023-03-01T12:02:35.858Z,33.65
2023-03-01T12:05:02.321Z,35.25
2023-03-01T12:07:28.765Z,34.58
2023-03-01T12:09:55.200Z,33.90
2023-03-01T12:12:21.886Z,34.11
2023-03-01T12:14:48.285Z,33.61
2023-03-01T12:17:14.751Z,34.11
2023-03-01T12:19:41.173Z,33.93
2023-03-01T12:22:07.625Z,33.53
2023-03-01T12:24:34.346Z,33.96
2023-03-01T12:27:00.782Z,33.52
2023-03-01T12:29:27.237Z,32.38
2023-03-01T12:31:53.771Z,32.71
2023-03-01T12:34:20.365Z,33.21
2023-03-01T12:36:46.896Z,33.56
2023-03-01T12:39:13.299Z,33.02
2023-03-01T12:41:39.738Z,33.20
2023-03-01T12:44:06.135Z,35.99
2023-03-01T12:46:32.852Z,36.74
2023-03-01T12:48:59.506Z,35.33
2023-03-01T12:51:25.907Z,33.27
2023-03-01T12:53:52.318Z,33.15
2023-03-01T12:56:18.758Z,33.58
2023-03-01T12:58:50.190Z,32.01
2023-03-01T13:01:17.845Z,32.97
2023-03-01T13:03:47.517Z,33.97
2023-03-01T13:06:14.166Z,33.38
2023-03-01T13:08:40.582Z,33.73
2023-03-01T13:11:07.068Z,34.11
2023-03-01T13:13:33.513Z,33.17
2023-03-01T13:15:59.914Z,33.13
2023-03-01T13:18:26.347Z,33.32
2023-03-01T13:20:52.882Z,33.04
2023-03-01T13:23:19.274Z,33.63
2023-03-01T13:25:45.684Z,32.99
2023-03-01T13:28:12.100Z,32.76
2023-03-01T13:30:38.529Z,33.87
2023-03-01T13:33:04.960Z,33.20
2023-03-01T13:35:31.366Z,33.36
2023-03-01T13:37:57.767Z,33.62
2023-03-01T13:40:24.283Z,33.61
2023-03-01T13:43:04.183Z,33.14
2023-03-01T13:45:31.721Z,33.29
2023-03-01T13:47:58.149Z,31.80
2023-03-01T13:50:24.856Z,31.21
2023-03-01T13:52:51.263Z,32.40
2023-03-01T13:55:17.709Z,30.97
2023-03-01T13:57:44.101Z,31.54
2023-03-01T14:00:10.508Z,31.18
2023-03-01T14:02:36.949Z,31.24
2023-03-01T14:05:03.351Z,32.00
2023-03-01T14:07:29.771Z,32.17
2023-03-01T14:09:56.179Z,31.59
2023-03-01T14:12:22.545Z,31.53
2023-03-01T14:14:48.958Z,32.38
2023-03-01T14:17:15.349Z,33.50
2023-03-01T14:19:41.738Z,31.88
2023-03-01T14:22:08.144Z,32.47
2023-03-01T14:24:34.539Z,32.50
2023-03-01T14:27:01.006Z,32.46
2023-03-01T14:29:27.416Z,32.08
2023-03-01T14:31:54.101Z,32.03
2023-03-01T14:34:20.594Z,31.98
2023-03-01T14:36:47.007Z,31.71
2023-03-01T14:39:13.424Z,32.60
2023-03-01T14:41:39.819Z,32.08
2023-03-01T14:44:06.207Z,32.37
2023-03-01T14:46:32.987Z,32.64
2023-03-01T14:48:59.566Z,32.42
2023-03-01T14:51:25.959Z,32.82
2023-03-01T14:53:52.346Z,32.07
2023-03-01T14:56:18.780Z,31.53
2023-03-01T14:58:47.061Z,32.31
2023-03-01T15:01:13.806Z,32.47
2023-03-01T15:03:40.323Z,31.64
2023-03-01T15:06:06.885Z,32.21
2023-03-01T15:08:33.534Z,31.74
2023-03-01T15:10:59.905Z,32.60
2023-03-01T15:13:26.322Z,31.56
2023-03-01T15:15:52.767Z,33.24
2023-03-01T15:18:19.168Z,33.23
2023-03-01T15:20:45.581Z,33.15
2023-03-01T15:23:13.343Z,32.99
2023-03-01T15:25:39.756Z,32.42
2023-03-01T15:28:06.147Z,32.59
2023-03-01T15:30:32.530Z,31.91
2023-03-01T15:32:58.971Z,32.52
2023-03-01T15:35:25.447Z,32.95
2023-03-01T15:37:55.009Z,32.91
2023-03-01T15:40:21.508Z,32.74
2023-03-01T15:42:47.891Z,33.49
2023-03-01T15:45:14.402Z,32.44
2023-03-01T15:47:40.782Z,32.66
2023-03-01T15:50:08.339Z,32.80
2023-03-01T15:52:34.795Z,34.49
2023-03-01T15:55:01.377Z,33.40
2023-03-01T15:57:27.806Z,34.02
2023-03-01T15:59:54.253Z,35.53
2023-03-01T16:02:20.752Z,33.91
2023-03-01T16:04:47.399Z,34.81
2023-03-01T16:07:13.993Z,33.95
2023-03-01T16:09:40.394Z,34.96
2023-03-01T16:12:06.811Z,34.03
2023-03-01T16:14:33.402Z,33.32
2023-03-01T16:16:59.964Z,34.30
2023-03-01T16:19:26.341Z,34.21
2023-03-01T16:21:52.760Z,34.03
2023-03-01T16:24:19.188Z,33.91
2023-03-01T16:26:45.680Z,34.52
2023-03-01T16:29:12.135Z,34.82
2023-03-01T16:31:38.556Z,34.52
2023-03-01T16:34:05.471Z,34.31
2023-03-01T16:36:31.911Z,34.14
2023-03-01T16:38:58.332Z,33.48
2023-03-01T16:41:24.703Z,34.35
2023-03-01T16:43:51.096Z,33.93
2023-03-01T16:46:17.586Z,33.12
2023-03-01T16:48:44.215Z,33.70
2023-03-01T16:51:10.617Z,34.06
2023-03-01T16:53:37.060Z,33.97
2023-03-01T16:56:03.700Z,33.97
2023-03-01T16:58:30.158Z,33.92
2023-03-01T17:00:56.618Z,33.77
2023-03-01T17:03:23.320Z,35.09
2023-03-01T17:05:49.783Z,35.99
2023-03-01T17:08:16.221Z,35.91
2023-03-01T17:10:42.764Z,36.43
2023-03-01T17:13:09.378Z,35.88
2023-03-01T17:15:35.774Z,35.96
2023-03-01T17:18:02.151Z,34.86
2023-03-01T17:20:28.590Z,35.42
2023-03-01T17:22:54.983Z,39.17
2023-03-01T17:25:21.659Z,35.63
2023-03-01T17:27:48.432Z,34.06
2023-03-01T17:30:14.842Z,33.90
2023-03-01T17:32:41.338Z,33.59
2023-03-01T17:35:07.981Z,33.30
2023-03-01T17:37:34.392Z,32.59
2023-03-01T17:40:00.791Z,33.26
2023-03-01T17:42:27.239Z,33.96
2023-03-01T17:44:53.722Z,33.05
2023-03-01T17:47:20.179Z,34.01
2023-03-01T17:49:49.728Z,33.67
2023-03-01T17:52:16.222Z,33.67
2023-03-01T17:54:42.601Z,33.62
2023-03-01T17:57:08.976Z,33.48
2023-03-01T17:59:35.378Z,33.78
2023-03-01T18:02:02.014Z,34.72
2023-03-01T18:04:28.521Z,35.15
2023-03-01T18:06:55.153Z,34.35
2023-03-01T18:09:21.578Z,34.57
2023-03-01T18:11:48.067Z,33.87
2023-03-01T18:14:14.470Z,34.11
2023-03-01T18:16:41.210Z,33.16
2023-03-01T18:19:07.761Z,34.40
2023-03-01T18:21:34.486Z,33.47
2023-03-01T18:24:01.136Z,34.21
2023-03-01T18:26:27.574Z,33.99
2023-03-01T18:28:54.023Z,33.32
2023-03-01T18:31:20.670Z,33.97
2023-03-01T18:33:47.063Z,33.67
2023-03-01T18:36:13.534Z,35.50
2023-03-01T18:38:42.272Z,35.58
2023-03-01T18:41:08.751Z,35.10
2023-03-01T18:43:36.741Z,34.28
2023-03-01T18:46:03.592Z,34.47
2023-03-01T18:48:30.239Z,34.48
2023-03-01T18:50:57.231Z,34.61
2023-03-01T18:53:26.519Z,35.95
2023-03-01T18:55:53.331Z,35.21
2023-03-01T18:58:19.863Z,35.51
2023-03-01T19:00:46.477Z,34.98
2023-03-01T19:03:13.068Z,35.45
2023-03-01T19:05:39.488Z,35.50
2023-03-01T19:08:06.021Z,35.60
2023-03-01T19:10:32.509Z,35.19
2023-03-01T19:12:58.927Z,34.65
2023-03-01T19:15:25.298Z,35.15
2023-03-01T19:17:53.571Z,35.40
2023-03-01T19:20:20.981Z,35.45
2023-03-01T19:22:47.550Z,35.23
2023-03-01T19:25:14.028Z,34.66
2023-03-01T19:27:40.420Z,35.26
2023-03-01T19:30:07.985Z,34.66
2023-03-01T19:32:34.392Z,35.24
2023-03-01T19:35:00.829Z,35.22
2023-03-01T19:37:27.215Z,35.66
2023-03-01T19:39:53.780Z,35.27
2023-03-01T19:42:20.487Z,34.72
2023-03-01T19:44:46.858Z,34.28
2023-03-01T19:47:13.256Z,35.44
2023-03-01T19:49:39.886Z,34.35
2023-03-01T19:52:06.298Z,34.70
2023-03-01T19:54:32.858Z,34.55
2023-03-01T19:56:59.259Z,34.68
2023-03-01T19:59:25.697Z,34.69
2023-03-01T20:01:52.864Z,34.52
2023-03-01T20:04:19.602Z,34.52
2023-03-01T20:06:46.013Z,34.90
2023-03-01T20:09:21.569Z,36.32
2023-03-01T20:11:48.803Z,34.88
2023-03-01T20:14:15.336Z,35.19
2023-03-01T20:16:41.789Z,34.50
2023-03-01T20:19:08.182Z,34.65
2023-03-01T20:21:34.710Z,35.06
2023-03-01T20:24:01.148Z,35.15
2023-03-01T20:26:27.559Z,35.51
2023-03-01T20:28:53.965Z,34.95
2023-03-01T20:31:23.939Z,35.80
2023-03-01T20:33:50.541Z,34.27
2023-03-01T20:36:17.081Z,34.57
2023-03-01T20:38:43.467Z,33.95
2023-03-01T20:41:10.088Z,33.23
2023-03-01T20:43:36.470Z,34.47
2023-03-01T20:46:02.877Z,35.64
2023-03-01T20:48:30.445Z,34.67
2023-03-01T20:50:57.071Z,34.94
2023-03-01T20:53:24.892Z,34.02
2023-03-01T20:55:51.355Z,35.22
2023-03-01T20:58:17.747Z,34.89
2023-03-01T21:00:46.927Z,34.15
2023-03-01T21:03:13.759Z,34.77
2023-03-01T21:05:40.220Z,33.89
2023-03-01T21:08:06.630Z,34.80
2023-03-01T21:10:33.110Z,34.50
2023-03-01T21:13:03.777Z,34.08
2023-03-01T21:15:30.170Z,34.64
2023-03-01T21:17:56.848Z,35.50
2023-03-01T21:20:23.331Z,35.28
2023-03-01T21:22:49.878Z,35.34
2023-03-01T21:25:16.318Z,34.85
2023-03-01T21:27:42.707Z,35.99
2023-03-01T21:30:09.202Z,39.93
2023-03-01T21:32:35.638Z,39.68
2023-03-01T21:35:02.123Z,35.85
2023-03-01T21:37:28.636Z,36.41
2023-03-01T21:39:55.121Z,35.72
2023-03-01T21:42:21.710Z,35.29
2023-03-01T21:44:48.083Z,36.07
2023-03-01T21:47:14.506Z,35.56
2023-03-01T21:49:40.944Z,34.42
2023-03-01T21:52:07.440Z,35.15
2023-03-01T21:54:34.268Z,35.30
2023-03-01T21:57:07.503Z,34.54
2023-03-01T21:59:33.875Z,35.05
2023-03-01T22:02:00.287Z,34.85
2023-03-01T22:04:26.729Z,34.14
2023-03-01T22:06:53.107Z,33.38
2023-03-01T22:09:19.638Z,33.83
2023-03-01T22:11:46.155Z,34.55
2023-03-01T22:14:13.791Z,34.56
2023-03-01T22:16:40.502Z,33.53
2023-03-01T22:19:07.078Z,34.05
2023-03-01T22:21:34.752Z,34.42
2023-03-01T22:24:01.149Z,34.40
2023-03-01T22:26:27.624Z,34.55
2023-03-01T22:28:54.287Z,33.75
2023-03-01T22:31:20.697Z,34.08
2023-03-01T22:33:47.108Z,34.48
2023-03-01T22:36:13.526Z,35.36
2023-03-01T22:38:39.916Z,33.71
2023-03-01T22:41:06.376Z,35.61
2023-03-01T22:43:32.890Z,34.40
2023-03-01T22:45:59.367Z,34.30
2023-03-01T22:48:25.781Z,35.14
2023-03-01T22:50:52.195Z,34.77
2023-03-01T22:53:31.707Z,35.24
2023-03-01T22:55:58.216Z,35.59
2023-03-01T22:58:24.634Z,35.88
2023-03-01T23:00:51.026Z,37.53
2023-03-01T23:03:17.467Z,37.00
2023-03-01T23:05:43.991Z,35.74
2023-03-01T23:08:10.700Z,36.83
2023-03-01T23:10:37.120Z,35.95
2023-03-01T23:13:03.551Z,35.93
2023-03-01T23:15:29.941Z,36.01
2023-03-01T23:17:56.338Z,35.37
2023-03-01T23:20:22.956Z,36.23
2023-03-01T23:22:49.494Z,35.95
2023-03-01T23:25:15.877Z,37.27
2023-03-01T23:27:42.327Z,36.78
2023-03-01T23:30:08.808Z,37.29
2023-03-01T23:32:35.359Z,37.79
2023-03-01T23:35:01.864Z,38.61
2023-03-01T23:37:28.289Z,36.18
2023-03-01T23:39:54.704Z,35.56
2023-03-01T23:42:21.082Z,36.07
2023-03-01T23:44:47.477Z,36.34
2023-03-01T23:47:13.926Z,35.78
2023-03-01T23:49:40.350Z,35.88
2023-03-01T23:52:06.766Z,35.16
2023-03-01T23:54:33.182Z,35.45
2023-03-01T23:56:59.584Z,34.95
2023-03-01T23:59:25.991Z,35.15
